Wigton, United Kingdom
Current Conditions -  °F | °C
As of 1:20 PM on Thursday 30 Oct 2014 (Local Time) from EGNC Reporting Station
Rain Showers Rain Showers  
Wind Chill: 14°   Ceiling: 2500
Heat Index: 14°   Visibility: 6mi
Dew Point: 14°   Wind: 5mph
Humidity: 100%   Direction: 210°SSW
Pressure: 29.91"   Gusts: NA
Location:  54.82°N, 3.16°W
Report Text: EGNC 301320Z 21004KT 9999 VCSH FEW012 SCT020 BKN025 14/14 Q1013
Loading
Personal Weather Stations






























Interactive Weather Map
Tropical Storm Tracking
New forecast layout! Learn more

10-Day Weather Forecast

Advertisements
Track Severe Weather on mobile